createdAt,value
2017-08-31T09:07:44.616Z,18.70
2017-08-31T09:10:12.364Z,18.70
2017-08-31T09:12:40.313Z,18.70
2017-08-31T09:15:08.117Z,18.70
2017-08-31T09:17:35.851Z,18.80
2017-08-31T09:20:03.781Z,18.80
2017-08-31T09:22:31.749Z,18.70
2017-08-31T09:25:02.523Z,18.40
2017-08-31T09:27:30.351Z,18.30
2017-08-31T09:29:58.127Z,18.20
2017-08-31T09:32:25.897Z,18.10
2017-08-31T09:34:53.699Z,18.00
2017-08-31T09:37:22.558Z,18.00
2017-08-31T09:39:50.919Z,18.00
2017-08-31T09:42:18.787Z,18.00
2017-08-31T09:44:46.561Z,17.90
2017-08-31T09:47:14.385Z,17.80
2017-08-31T09:49:42.200Z,17.70
2017-08-31T09:52:10.043Z,17.60
2017-08-31T09:54:37.797Z,17.50
2017-08-31T09:57:05.670Z,17.40
2017-08-31T09:59:33.443Z,17.20
2017-08-31T10:02:01.199Z,17.10
2017-08-31T10:04:28.936Z,17.10
2017-08-31T10:06:56.825Z,17.10
2017-08-31T10:09:24.574Z,17.20
2017-08-31T10:11:52.317Z,17.20
2017-08-31T10:14:20.094Z,17.20
2017-08-31T10:16:48.524Z,17.20
2017-08-31T10:19:16.290Z,17.30
2017-08-31T10:21:44.652Z,17.40
2017-08-31T10:24:12.552Z,17.40
2017-08-31T10:26:40.365Z,17.50
2017-08-31T10:29:08.266Z,17.60
2017-08-31T10:31:36.137Z,17.60
2017-08-31T10:34:04.031Z,17.70
2017-08-31T10:36:31.971Z,17.70
2017-08-31T10:38:59.810Z,17.70
2017-08-31T10:41:27.990Z,17.70
2017-08-31T10:43:55.776Z,17.70
2017-08-31T10:46:23.574Z,17.80
2017-08-31T10:48:51.388Z,17.90
2017-08-31T10:51:19.347Z,17.80
2017-08-31T10:53:47.211Z,17.80
2017-08-31T10:56:14.987Z,17.90
2017-08-31T10:58:42.805Z,17.90
2017-08-31T11:01:10.627Z,17.80
2017-08-31T11:03:38.540Z,17.70
2017-08-31T11:06:06.334Z,17.70
2017-08-31T11:08:34.548Z,17.70
2017-08-31T11:11:02.466Z,17.80
2017-08-31T11:13:30.286Z,17.90
2017-08-31T11:15:58.347Z,18.00
2017-08-31T11:18:26.137Z,17.90
2017-08-31T11:20:54.254Z,17.90
2017-08-31T11:23:22.061Z,17.90
2017-08-31T11:25:49.870Z,17.90
2017-08-31T11:28:17.835Z,17.80
2017-08-31T11:30:45.721Z,17.80
2017-08-31T11:33:13.737Z,17.80
2017-08-31T11:35:41.466Z,17.80
2017-08-31T11:38:09.826Z,17.70
2017-08-31T11:40:37.856Z,17.70
2017-08-31T11:43:05.602Z,17.80
2017-08-31T11:45:33.454Z,17.80
2017-08-31T11:48:01.327Z,17.70
2017-08-31T11:50:29.585Z,17.70
2017-08-31T11:52:57.523Z,17.70
2017-08-31T11:55:25.286Z,17.60
2017-08-31T11:57:53.077Z,17.60
2017-08-31T12:00:20.838Z,17.60
2017-08-31T12:02:48.703Z,17.60
2017-08-31T12:05:16.570Z,17.60
2017-08-31T12:07:46.285Z,17.60
2017-08-31T12:10:14.138Z,17.50
2017-08-31T12:12:42.142Z,17.60
2017-08-31T12:15:10.090Z,17.50
2017-08-31T12:17:38.058Z,17.60
2017-08-31T12:20:06.023Z,17.60
2017-08-31T12:22:33.898Z,17.60
2017-08-31T12:25:01.749Z,17.60
2017-08-31T12:27:29.734Z,17.70
2017-08-31T12:29:57.508Z,17.80
2017-08-31T12:32:25.361Z,17.80
2017-08-31T12:34:53.146Z,17.80
2017-08-31T12:37:20.917Z,17.80
2017-08-31T12:39:49.352Z,17.70
2017-08-31T12:42:17.507Z,17.60
2017-08-31T12:44:45.500Z,17.70
2017-08-31T12:47:13.803Z,17.80
2017-08-31T12:49:41.771Z,17.80
2017-08-31T12:52:10.300Z,17.70
2017-08-31T12:54:38.436Z,17.70
2017-08-31T12:57:07.920Z,17.70
2017-08-31T12:59:35.880Z,17.60
2017-08-31T13:02:03.847Z,17.60
2017-08-31T13:04:31.749Z,17.70
2017-08-31T13:06:59.608Z,17.80
2017-08-31T13:09:27.784Z,17.80
2017-08-31T13:11:55.638Z,17.70
2017-08-31T13:14:23.692Z,17.60
2017-08-31T13:16:51.561Z,17.50
2017-08-31T13:19:19.358Z,17.50
2017-08-31T13:21:47.214Z,17.50
2017-08-31T13:24:15.467Z,17.50
2017-08-31T13:26:43.561Z,17.60
2017-08-31T13:29:11.425Z,17.60
2017-08-31T13:31:39.300Z,17.70
2017-08-31T13:34:07.043Z,17.70
2017-08-31T13:36:34.997Z,17.70
2017-08-31T13:39:02.893Z,17.60
2017-08-31T13:41:30.751Z,17.60
2017-08-31T13:43:58.597Z,17.50
2017-08-31T13:46:26.567Z,17.40
2017-08-31T13:48:54.368Z,17.20
2017-08-31T13:51:22.398Z,17.00
2017-08-31T13:53:50.164Z,16.80
2017-08-31T13:56:18.237Z,16.80
2017-08-31T13:58:45.989Z,16.60
2017-08-31T14:01:13.966Z,16.50
2017-08-31T14:03:41.728Z,16.40
2017-08-31T14:06:09.516Z,16.30
2017-08-31T14:08:37.566Z,16.30
2017-08-31T14:11:05.442Z,16.20
2017-08-31T14:13:33.219Z,16.20
2017-08-31T14:16:01.067Z,16.20
2017-08-31T14:18:28.903Z,16.10
2017-08-31T14:20:56.913Z,16.10
2017-08-31T14:23:25.687Z,16.10
2017-08-31T14:25:54.507Z,16.00
2017-08-31T14:28:22.548Z,16.00
2017-08-31T14:30:50.616Z,16.00
2017-08-31T14:33:18.512Z,16.00
2017-08-31T14:35:46.560Z,15.90
2017-08-31T14:38:14.626Z,15.80
2017-08-31T14:40:42.530Z,15.70
2017-08-31T14:43:10.627Z,15.70
2017-08-31T14:45:38.736Z,15.60
2017-08-31T14:48:07.594Z,15.60
2017-08-31T14:50:35.608Z,15.50
2017-08-31T14:53:03.566Z,15.40
2017-08-31T14:55:31.644Z,15.40
2017-08-31T14:57:59.707Z,15.40
2017-08-31T15:00:27.680Z,15.40
2017-08-31T15:02:55.654Z,15.40
2017-08-31T15:05:23.612Z,15.40
2017-08-31T15:07:51.505Z,15.40
2017-08-31T15:10:20.175Z,15.50
2017-08-31T15:12:48.827Z,15.50
2017-08-31T15:18:10.613Z,15.60
2017-08-31T15:20:38.724Z,15.60
2017-08-31T15:23:07.887Z,15.60
2017-08-31T15:25:35.633Z,15.60
2017-08-31T15:28:04.437Z,15.60
2017-08-31T15:30:51.368Z,15.70
2017-08-31T15:33:20.103Z,15.80
2017-08-31T15:35:49.513Z,15.70
2017-08-31T15:38:17.379Z,15.80
2017-08-31T15:40:45.186Z,15.80
2017-08-31T15:43:13.306Z,15.80
2017-08-31T15:45:41.788Z,15.80
2017-08-31T15:48:09.756Z,15.80
2017-08-31T15:50:37.726Z,15.80
2017-08-31T15:53:05.622Z,15.80
2017-08-31T15:55:33.471Z,15.80
2017-08-31T15:58:01.354Z,15.80
2017-08-31T16:00:29.200Z,15.60
2017-08-31T16:02:57.578Z,15.60
2017-08-31T16:05:25.538Z,15.60
2017-08-31T16:07:53.405Z,15.60
2017-08-31T16:10:21.378Z,15.50
2017-08-31T16:12:49.246Z,15.50
2017-08-31T16:15:17.137Z,15.50
2017-08-31T16:17:44.983Z,15.40
2017-08-31T16:20:12.949Z,15.40
2017-08-31T16:22:41.933Z,15.40
2017-08-31T16:25:09.932Z,15.40
2017-08-31T16:27:37.699Z,15.40
2017-08-31T16:30:05.638Z,15.40
2017-08-31T16:32:33.432Z,15.40
2017-08-31T16:35:01.373Z,15.40
2017-08-31T16:37:29.345Z,15.40
2017-08-31T16:39:57.223Z,15.40
2017-08-31T16:42:25.990Z,15.30
2017-08-31T16:44:53.857Z,15.40
2017-08-31T16:47:21.930Z,15.40
2017-08-31T16:49:49.822Z,15.40
2017-08-31T16:52:17.689Z,15.40
2017-08-31T16:54:45.730Z,15.40
2017-08-31T16:57:13.713Z,15.40
2017-08-31T16:59:41.589Z,15.40
2017-08-31T17:02:10.559Z,15.40
2017-08-31T17:04:38.426Z,15.30
2017-08-31T17:07:06.308Z,15.40
2017-08-31T17:09:35.389Z,15.30
2017-08-31T17:12:03.469Z,15.30
2017-08-31T17:14:31.438Z,15.30
2017-08-31T17:16:59.428Z,15.20
2017-08-31T17:19:27.375Z,15.20
2017-08-31T17:21:55.196Z,15.20
2017-08-31T17:24:22.958Z,15.20
2017-08-31T17:26:50.865Z,15.20
2017-08-31T17:29:18.763Z,15.20
2017-08-31T17:31:46.560Z,15.20
2017-08-31T17:34:14.380Z,15.20
2017-08-31T17:36:42.335Z,15.20
2017-08-31T17:39:10.307Z,15.10
2017-08-31T17:41:38.266Z,15.10
2017-08-31T17:44:06.237Z,15.10
2017-08-31T17:46:34.206Z,15.00
2017-08-31T17:49:02.112Z,15.10
2017-08-31T17:51:30.579Z,15.00
2017-08-31T17:53:58.365Z,15.00
2017-08-31T17:56:26.490Z,15.00
2017-08-31T17:58:54.974Z,15.00
2017-08-31T18:01:27.416Z,15.00
2017-08-31T18:03:55.432Z,14.90
2017-08-31T18:06:23.729Z,14.90
2017-08-31T18:08:51.658Z,15.00
2017-08-31T18:11:19.743Z,15.00
2017-08-31T18:13:47.707Z,15.00
2017-08-31T18:16:15.871Z,15.00
2017-08-31T18:18:43.949Z,15.00
2017-08-31T18:21:13.043Z,15.00
2017-08-31T18:23:41.128Z,15.00
2017-08-31T18:26:09.179Z,15.00
2017-08-31T18:28:37.803Z,15.10
2017-08-31T18:31:06.038Z,15.10
2017-08-31T18:33:34.120Z,15.00
2017-08-31T18:36:02.185Z,15.10
2017-08-31T18:38:30.254Z,15.00
2017-08-31T18:40:58.322Z,15.10
2017-08-31T18:43:26.328Z,15.00
2017-08-31T18:45:54.268Z,15.10
2017-08-31T18:48:22.139Z,15.10
2017-08-31T18:50:50.354Z,15.10
2017-08-31T18:53:18.374Z,15.10
2017-08-31T18:55:46.247Z,15.00
2017-08-31T18:58:14.134Z,15.00
2017-08-31T19:00:42.113Z,15.00
2017-08-31T19:03:09.949Z,15.00
2017-08-31T19:05:37.920Z,15.00
2017-08-31T19:08:05.908Z,15.00
2017-08-31T19:10:33.783Z,15.00
2017-08-31T19:13:01.883Z,14.90
2017-08-31T19:15:30.001Z,14.90
2017-08-31T19:17:58.118Z,14.90
2017-08-31T19:20:26.244Z,14.80
2017-08-31T19:22:54.308Z,14.80
2017-08-31T19:25:22.273Z,14.80
2017-08-31T19:27:50.473Z,14.80
2017-08-31T19:30:18.421Z,14.80
2017-08-31T19:32:46.443Z,14.80
2017-08-31T19:35:14.612Z,14.80
2017-08-31T19:37:42.835Z,14.80
2017-08-31T19:40:10.906Z,14.80
2017-08-31T19:42:38.893Z,14.80
2017-08-31T19:45:06.853Z,14.80
2017-08-31T19:47:34.814Z,14.80
2017-08-31T19:50:02.666Z,14.80
2017-08-31T19:52:30.652Z,14.70
2017-08-31T19:54:58.926Z,14.70
2017-08-31T19:57:26.893Z,14.70
2017-08-31T19:59:55.008Z,14.60
2017-08-31T20:02:22.955Z,14.60
2017-08-31T20:04:50.908Z,14.60
2017-08-31T20:07:18.896Z,14.60
2017-08-31T20:09:46.738Z,14.50
2017-08-31T20:12:14.622Z,14.50
2017-08-31T20:14:42.496Z,14.50
2017-08-31T20:17:10.351Z,14.40
2017-08-31T20:19:38.514Z,14.40
2017-08-31T20:22:06.365Z,14.30
2017-08-31T20:24:34.412Z,14.30
2017-08-31T20:27:02.234Z,14.20
2017-08-31T20:29:30.295Z,14.20
2017-08-31T20:31:58.493Z,14.20
2017-08-31T20:34:26.766Z,14.20
2017-08-31T20:36:54.711Z,14.20
2017-08-31T20:39:22.599Z,14.10
2017-08-31T20:41:50.436Z,14.10
2017-08-31T20:44:18.428Z,14.10
2017-08-31T20:46:46.292Z,14.10
2017-08-31T20:49:14.055Z,14.10
2017-08-31T20:51:42.329Z,14.20
2017-08-31T20:54:10.192Z,14.20
2017-08-31T20:56:38.028Z,14.10
2017-08-31T20:59:06.024Z,14.20
2017-08-31T21:01:33.799Z,14.10
2017-08-31T21:04:02.423Z,14.10
2017-08-31T21:06:30.183Z,14.20
2017-08-31T21:08:57.922Z,14.20
2017-08-31T21:11:25.851Z,14.10
2017-08-31T21:13:53.665Z,14.10
2017-08-31T21:16:21.415Z,14.10
2017-08-31T21:18:49.162Z,14.10
2017-08-31T21:21:17.115Z,14.10
2017-08-31T21:23:44.984Z,14.10
2017-08-31T21:26:12.982Z,14.10
2017-08-31T21:28:40.732Z,14.10
2017-08-31T21:31:08.610Z,14.20
2017-08-31T21:33:36.362Z,14.10
2017-08-31T21:36:04.115Z,14.10
2017-08-31T21:38:31.890Z,14.10
2017-08-31T21:40:59.658Z,14.10
2017-08-31T21:43:27.512Z,14.10
2017-08-31T21:45:55.298Z,14.10
2017-08-31T21:48:23.135Z,14.10
2017-08-31T21:50:51.019Z,14.10
2017-08-31T21:53:18.864Z,14.10
2017-08-31T21:55:46.598Z,14.20
2017-08-31T21:58:14.423Z,14.10
2017-08-31T22:00:42.364Z,14.10
2017-08-31T22:03:10.243Z,14.10
2017-08-31T22:05:37.999Z,14.10
2017-08-31T22:08:05.820Z,14.10
2017-08-31T22:10:33.755Z,14.10
2017-08-31T22:13:01.533Z,14.10
2017-08-31T22:15:29.320Z,14.10
2017-08-31T22:17:57.609Z,14.10
2017-08-31T22:20:25.371Z,14.10
2017-08-31T22:22:53.177Z,14.10
2017-08-31T22:25:21.040Z,14.10
2017-08-31T22:27:48.789Z,14.10
2017-08-31T22:30:17.277Z,14.00
2017-08-31T22:32:45.042Z,14.00
2017-08-31T22:35:12.792Z,14.00
2017-08-31T22:37:40.513Z,14.00
2017-08-31T22:40:08.308Z,14.00
2017-08-31T22:42:36.090Z,13.90
2017-08-31T22:45:03.827Z,13.90
2017-08-31T22:47:31.587Z,13.80
2017-08-31T22:49:59.392Z,13.80
2017-08-31T22:52:27.262Z,13.70
2017-08-31T22:54:55.236Z,13.70
2017-08-31T22:57:35.046Z,13.70
2017-08-31T23:00:02.928Z,13.60
2017-08-31T23:02:30.707Z,13.60
2017-08-31T23:04:58.475Z,13.60
2017-08-31T23:07:26.226Z,13.60
2017-08-31T23:09:54.011Z,13.60
2017-08-31T23:12:21.857Z,13.60
2017-08-31T23:14:49.625Z,13.60
2017-08-31T23:17:17.526Z,13.50
2017-08-31T23:19:45.425Z,13.50
2017-08-31T23:22:13.215Z,13.50
2017-08-31T23:24:42.210Z,13.40
2017-08-31T23:27:09.918Z,13.40
2017-08-31T23:29:37.701Z,13.50
2017-08-31T23:32:05.469Z,13.50
2017-08-31T23:34:33.288Z,13.50
2017-08-31T23:37:01.025Z,13.50
2017-08-31T23:39:28.867Z,13.50
2017-08-31T23:41:56.730Z,13.50
2017-08-31T23:44:24.498Z,13.40
2017-08-31T23:46:52.315Z,13.40
2017-08-31T23:49:20.112Z,13.50
2017-08-31T23:51:47.851Z,13.50
2017-08-31T23:54:15.570Z,13.40
2017-08-31T23:56:43.465Z,13.40
2017-08-31T23:59:17.496Z,13.50
